Time;durP1;ratioP1;P1;durP2;ratioP2;P2;SDS_P1;SDS_P2;PMS_P1;PMS_P2;Temp;Humidity;BMP_temperature;BMP_pressure;BME280_temperature;BME280_humidity;BME280_pressure;Samples;Min_cycle;Max_cycle;Signal;HPM_P1;HPM_P2
2023/09/26 00:01:30;;;;;;;9.73;3.85;;;;;;;22.10;53.22;101783.02;2291396;76;51510;-72
2023/09/26 00:04:33;;;;;;;5.90;3.72;;;;;;;22.08;53.24;101795.31;2311083;76;51570;-74
2023/09/26 00:07:36;;;;;;;7.03;4.08;;;;;;;22.09;53.15;101794.31;2261019;76;52668;-73
2023/09/26 00:10:39;;;;;;;7.10;4.00;;;;;;;22.08;53.18;101793.14;2317050;76;51648;-74
2023/09/26 00:13:43;;;;;;;9.08;4.20;;;;;;;22.09;53.15;101796.15;2318281;76;50298;-74
2023/09/26 00:16:45;;;;;;;9.50;4.05;;;;;;;22.08;53.20;101783.19;2261376;76;52381;-74
2023/09/26 00:19:48;;;;;;;9.25;4.25;;;;;;;22.08;53.20;101786.39;2291304;76;51504;-74
2023/09/26 00:22:50;;;;;;;7.10;3.87;;;;;;;22.07;53.24;101784.22;2317081;76;50215;-75
2023/09/26 00:25:52;;;;;;;7.00;4.20;;;;;;;22.07;53.18;101777.48;2266002;76;52786;-74
2023/09/26 00:28:55;;;;;;;7.00;3.47;;;;;;;22.07;53.18;101778.83;2318096;76;50257;-75
2023/09/26 00:31:58;;;;;;;7.67;3.95;;;;;;;22.08;53.19;101776.96;2317565;76;50394;-75
2023/09/26 00:35:01;;;;;;;7.25;3.85;;;;;;;22.07;53.19;101780.69;2323445;76;50747;-75
2023/09/26 00:38:03;;;;;;;7.55;3.90;;;;;;;22.07;53.24;101776.64;2305521;76;51430;-75
2023/09/26 00:41:07;;;;;;;7.42;3.77;;;;;;;22.06;53.15;101783.87;2280026;76;51645;-75
2023/09/26 00:44:11;;;;;;;9.43;4.00;;;;;;;22.06;53.20;101781.17;2305529;76;50657;-75
2023/09/26 00:47:13;;;;;;;7.12;3.80;;;;;;;22.06;53.17;101773.08;2306030;76;22746;-74
2023/09/26 00:50:16;;;;;;;5.35;3.75;;;;;;;22.05;53.15;101776.81;2306792;76;51115;-75
2023/09/26 00:53:19;;;;;;;9.03;4.10;;;;;;;22.07;53.18;101780.69;2319065;76;51462;-75
2023/09/26 00:56:21;;;;;;;6.40;3.75;;;;;;;22.07;53.17;101780.69;2319089;76;51428;-76
2023/09/26 00:59:23;;;;;;;8.78;4.30;;;;;;;22.05;53.19;101778.16;2318749;76;51477;-75
2023/09/26 01:02:25;;;;;;;7.83;3.95;;;;;;;22.06;53.23;101774.95;2318840;76;51398;-75
2023/09/26 01:05:27;;;;;;;5.60;3.77;;;;;;;22.05;53.13;101767.89;2251233;76;51030;-75
2023/09/26 01:08:30;;;;;;;8.75;3.90;;;;;;;22.05;53.10;101771.94;2319016;76;51482;-75
2023/09/26 01:11:33;;;;;;;7.67;3.85;;;;;;;22.05;53.16;101764.69;2333164;76;50406;-75
2023/09/26 01:14:35;;;;;;;7.00;3.62;;;;;;;22.05;53.13;101758.45;2318888;76;51548;-75
2023/09/26 01:17:37;;;;;;;8.93;3.83;;;;;;;22.04;53.24;101764.84;2319108;76;50406;-75
2023/09/26 01:20:43;;;;;;;7.45;3.77;;;;;;;22.04;53.17;101760.80;2318974;76;50267;-75
2023/09/26 01:23:45;;;;;;;5.42;3.62;;;;;;;22.03;53.15;101756.45;2333679;76;22739;-75
2023/09/26 01:26:48;;;;;;;5.35;3.45;;;;;;;22.04;53.17;101765.72;2319355;76;51950;-75
2023/09/26 01:29:51;;;;;;;6.10;3.80;;;;;;;22.04;53.16;101762.16;2307221;76;52509;-74
2023/09/26 01:32:53;;;;;;;6.12;3.72;;;;;;;22.03;53.18;101767.23;2319159;76;50663;-75
2023/09/26 01:35:55;;;;;;;7.97;3.70;;;;;;;22.04;53.12;101763.50;2290873;77;51434;-75
2023/09/26 01:38:57;;;;;;;10.55;3.62;;;;;;;22.03;53.12;101758.63;2305427;76;51413;-74
2023/09/26 01:42:00;;;;;;;5.00;3.55;;;;;;;22.03;53.19;101763.19;2305412;77;51430;-74
2023/09/26 01:45:02;;;;;;;8.08;3.47;;;;;;;22.02;53.18;101765.05;2283763;77;50198;-75
2023/09/26 01:48:09;;;;;;;5.95;3.15;;;;;;;22.03;53.26;101761.84;2309733;76;50258;-73
2023/09/26 01:51:11;;;;;;;7.55;3.65;;;;;;;22.03;53.19;101749.70;2285202;76;22317;-73
2023/09/26 01:54:13;;;;;;;5.95;3.90;;;;;;;22.02;53.23;101750.73;2283922;77;50199;-72
2023/09/26 01:57:15;;;;;;;8.55;3.80;;;;;;;22.02;53.13;101745.34;2309717;76;50637;-73
2023/09/26 02:00:19;;;;;;;5.40;3.27;;;;;;;22.01;53.15;101746.34;2283894;77;51435;-72
2023/09/26 02:03:23;;;;;;;9.08;3.83;;;;;;;22.02;53.15;101750.73;2290033;76;51853;-72
2023/09/26 02:06:25;;;;;;;6.87;3.65;;;;;;;22.01;53.18;101747.17;2290561;76;51477;-74
2023/09/26 02:09:27;;;;;;;4.90;3.20;;;;;;;22.01;53.13;101745.00;2291262;76;50705;-74
2023/09/26 02:12:30;;;;;;;7.03;3.58;;;;;;;22.01;53.13;101743.65;2291579;76;50265;-73
2023/09/26 02:15:32;;;;;;;6.55;3.90;;;;;;;22.02;53.13;101748.05;2317371;76;50766;-73
2023/09/26 02:18:34;;;;;;;4.40;3.65;;;;;;;22.01;53.14;101741.79;2293123;76;52317;-73
2023/09/26 02:21:36;;;;;;;7.03;3.40;;;;;;;22.02;53.16;101750.73;2317417;76;50472;-72
2023/09/26 02:24:38;;;;;;;6.95;3.65;;;;;;;22.00;53.18;101748.21;2317372;76;51493;-73
2023/09/26 02:27:41;;;;;;;5.00;3.77;;;;;;;22.01;53.13;101751.73;2261354;76;52472;-75
2023/09/26 02:30:44;;;;;;;6.80;3.67;;;;;;;22.00;53.17;101743.34;2291696;76;50003;-73
2023/09/26 02:33:46;;;;;;;3.70;3.08;;;;;;;22.01;53.18;101750.39;2318203;76;50296;-73
2023/09/26 02:36:48;;;;;;;6.47;3.30;;;;;;;22.00;53.13;101751.42;2274698;76;50385;-72
2023/09/26 02:39:50;;;;;;;5.65;3.60;;;;;;;21.99;53.17;101748.37;2272593;77;51554;-72
2023/09/26 02:42:52;;;;;;;4.75;3.40;;;;;;;22.01;53.17;101753.08;2247060;78;51012;-72
2023/09/26 02:45:55;;;;;;;4.78;3.33;;;;;;;22.00;53.14;101752.77;2248967;78;52413;-73
2023/09/26 02:48:57;;;;;;;5.42;3.25;;;;;;;21.99;53.16;101751.94;2272387;77;50597;-73
2023/09/26 02:51:59;;;;;;;6.67;3.20;;;;;;;21.99;53.14;101751.07;2272358;77;51492;-73
2023/09/26 02:55:02;;;;;;;7.28;3.37;;;;;;;21.99;53.20;101756.46;2272401;77;50641;-73
2023/09/26 02:58:04;;;;;;;6.15;3.27;;;;;;;21.99;53.17;101751.07;2272575;77;51567;-74
2023/09/26 03:01:06;;;;;;;5.03;3.40;;;;;;;21.98;53.14;101754.80;2274320;76;51378;-73
2023/09/26 03:04:08;;;;;;;4.62;3.30;;;;;;;21.98;53.20;101752.94;2316132;75;51430;-74
2023/09/26 03:07:11;;;;;;;12.60;3.40;;;;;;;21.98;53.11;101750.75;2307048;76;51022;-75
2023/09/26 03:10:15;;;;;;;6.08;3.52;;;;;;;21.97;53.16;101753.96;2305522;76;50069;-73
2023/09/26 03:13:17;;;;;;;4.63;3.53;;;;;;;21.96;53.18;101753.13;2305845;76;51638;-73
2023/09/26 03:16:20;;;;;;;3.85;3.27;;;;;;;21.97;53.20;101756.66;2306864;76;52354;-74
2023/09/26 03:19:23;;;;;;;4.42;3.17;;;;;;;21.98;53.15;101760.19;2305809;75;50187;-73
2023/09/26 03:22:25;;;;;;;5.37;3.52;;;;;;;21.98;53.19;101758.33;2305720;76;51666;-73
2023/09/26 03:25:27;;;;;;;5.72;3.37;;;;;;;21.97;53.27;101748.58;2305539;76;51382;-72
2023/09/26 03:28:29;;;;;;;5.12;3.47;;;;;;;21.95;53.16;101746.05;2305538;76;50629;-72
2023/09/26 03:31:34;;;;;;;8.63;3.30;;;;;;;21.95;53.19;101747.39;2319210;76;50256;-73
2023/09/26 03:34:36;;;;;;;6.60;3.33;;;;;;;21.96;53.17;101746.88;2305905;75;22214;-72
2023/09/26 03:37:39;;;;;;;4.83;3.37;;;;;;;21.95;53.14;101740.66;2269389;77;51361;-73
2023/09/26 03:40:41;;;;;;;4.28;3.10;;;;;;;21.96;53.19;101742.84;2245877;78;50115;-73
2023/09/26 03:43:44;;;;;;;6.42;3.50;;;;;;;21.95;53.13;101734.44;2269265;77;50314;-72
2023/09/26 03:46:46;;;;;;;8.05;3.35;;;;;;;21.95;53.15;101731.73;2269309;78;51585;-73
2023/09/26 03:49:51;;;;;;;5.95;3.02;;;;;;;21.95;53.14;101727.70;2246162;78;51535;-73
2023/09/26 03:52:53;;;;;;;;;;;;;;;21.94;53.20;101728.21;2271494;77;51530;-73
2023/09/26 03:55:55;;;;;;;3.90;2.83;;;;;;;21.96;53.06;101728.02;2269402;78;51462;-72
2023/09/26 03:58:58;;;;;;;6.25;3.55;;;;;;;21.94;53.12;101721.47;2246111;77;51453;-73
2023/09/26 04:02:00;;;;;;;5.33;3.12;;;;;;;21.94;53.24;101725.52;2275780;76;51552;-74
2023/09/26 04:05:02;;;;;;;4.67;3.50;;;;;;;21.94;53.14;101721.47;2286255;76;50437;-73
2023/09/26 04:08:05;;;;;;;4.58;3.27;;;;;;;21.93;53.16;101722.47;2276137;77;51631;-72
2023/09/26 04:11:16;;;;;;;4.50;3.17;;;;;;;21.93;53.20;101721.13;2302446;76;50270;-74
2023/09/26 04:14:18;;;;;;;5.50;3.33;;;;;;;21.92;53.17;101720.81;2251419;77;52415;-72
2023/09/26 04:17:21;;;;;;;5.47;3.60;;;;;;;21.92;53.15;101719.46;2276898;76;51422;-73
2023/09/26 04:20:23;;;;;;;5.20;3.20;;;;;;;21.92;53.16;101716.77;2276383;77;50471;-72
2023/09/26 04:23:25;;;;;;;4.53;3.27;;;;;;;21.92;53.18;101727.55;2276466;76;51553;-73
2023/09/26 04:26:27;;;;;;;5.22;3.65;;;;;;;21.92;53.17;101723.50;2276537;77;50392;-72
2023/09/26 04:29:29;;;;;;;10.48;3.55;;;;;;;21.93;53.16;101714.91;2276632;77;50052;-73
2023/09/26 04:32:32;;;;;;;5.72;3.05;;;;;;;21.91;53.16;101712.41;2286309;76;50791;-73
2023/09/26 04:35:34;;;;;;;4.35;3.27;;;;;;;21.91;53.11;101714.23;2267725;77;50108;-73
2023/09/26 04:38:36;;;;;;;4.30;3.30;;;;;;;21.92;53.31;101712.72;2247472;78;49561;-73
2023/09/26 04:41:39;;;;;;;7.78;3.75;;;;;;;21.89;53.84;101709.05;2272380;77;51576;-72
2023/09/26 04:44:41;;;;;;;5.17;3.30;;;;;;;21.95;53.50;101713.70;2249291;78;51457;-74
2023/09/26 04:47:43;;;;;;;10.13;3.47;;;;;;;21.96;53.53;101706.45;2249143;78;51455;-73
2023/09/26 04:50:45;;;;;;;13.38;3.55;;;;;;;21.99;53.66;101709.30;2272444;77;51377;-74
2023/09/26 04:53:47;;;;;;;13.30;3.70;;;;;;;21.99;53.92;101708.81;2248822;78;51626;-73
2023/09/26 04:56:50;;;;;;;13.48;4.08;;;;;;;22.02;53.81;101702.23;2272140;76;52211;-74
2023/09/26 04:59:52;;;;;;;13.83;4.28;;;;;;;22.03;54.19;101707.42;2274212;77;52526;-75
2023/09/26 05:02:54;;;;;;;10.88;4.20;;;;;;;22.01;54.10;101704.05;2296347;75;52084;-74
2023/09/26 05:05:56;;;;;;;11.93;3.83;;;;;;;22.01;54.31;101696.48;2288188;76;50028;-73
2023/09/26 05:08:58;;;;;;;9.38;3.37;;;;;;;22.00;54.24;101698.35;2318881;76;50765;-73
2023/09/26 05:12:01;;;;;;;13.88;3.30;;;;;;;22.01;54.50;101696.48;2318996;76;51140;-74
2023/09/26 05:15:05;;;;;;;11.05;3.62;;;;;;;22.01;54.50;101699.19;2291371;76;52035;-74
2023/09/26 05:18:07;;;;;;;11.03;3.83;;;;;;;21.99;55.12;101698.03;2300097;76;22305;-73
2023/09/26 05:21:09;;;;;;;9.68;3.65;;;;;;;22.01;54.91;101694.63;2276550;77;51460;-73
2023/09/26 05:24:12;;;;;;;19.23;3.77;;;;;;;21.99;54.88;101699.86;2276880;76;50098;-74
2023/09/26 05:27:14;;;;;;;14.10;3.70;;;;;;;21.99;54.79;101698.52;2273643;77;50714;-73
2023/09/26 05:30:16;;;;;;;11.55;3.85;;;;;;;22.01;54.93;101705.92;2305548;76;50286;-75
2023/09/26 05:33:18;;;;;;;12.88;3.70;;;;;;;22.01;54.81;101699.19;2305992;76;50271;-75
2023/09/26 05:36:21;;;;;;;10.90;3.65;;;;;;;21.99;54.57;101702.08;2313068;76;50336;-75
2023/09/26 05:39:24;;;;;;;17.52;3.95;;;;;;;22.00;54.88;101702.91;2283063;77;50535;-76
2023/09/26 05:42:26;;;;;;;22.67;4.37;;;;;;;22.01;55.03;101697.84;2282742;77;52666;-74
2023/09/26 05:45:29;;;;;;;18.20;4.35;;;;;;;22.02;54.67;101699.53;2308728;76;51405;-75
2023/09/26 05:48:31;;;;;;;13.30;3.75;;;;;;;22.03;54.52;101699.84;2282954;77;51462;-75
2023/09/26 05:51:33;;;;;;;12.10;3.85;;;;;;;22.02;54.77;101702.23;2282961;77;52303;-74
2023/09/26 05:54:35;;;;;;;16.45;3.98;;;;;;;22.01;54.82;101697.84;2282886;77;49898;-73
2023/09/26 05:57:38;;;;;;;14.40;4.15;;;;;;;22.00;54.74;101705.09;2310859;76;50318;-73
2023/09/26 06:00:42;;;;;;;19.17;4.15;;;;;;;22.02;54.82;101702.23;2293687;77;51437;-74
2023/09/26 06:03:44;;;;;;;19.37;4.30;;;;;;;22.05;54.61;101701.86;2274418;76;52640;-74
2023/09/26 06:06:47;;;;;;;17.70;4.30;;;;;;;22.06;54.61;101700.83;2279000;76;50058;-74
2023/09/26 06:09:49;;;;;;;16.17;4.42;;;;;;;22.10;54.52;101705.69;2312985;76;51546;-73
2023/09/26 06:12:53;;;;;;;14.23;4.17;;;;;;;22.15;54.39;101711.89;2306187;75;50761;-74
2023/09/26 06:15:55;;;;;;;18.30;4.47;;;;;;;22.20;54.25;101709.52;2300043;76;50912;-74
2023/09/26 06:18:57;;;;;;;17.30;4.17;;;;;;;22.21;54.33;101720.62;2318653;76;50194;-74
2023/09/26 06:21:59;;;;;;;21.85;3.83;;;;;;;22.21;54.23;101710.35;2318736;76;50363;-73
2023/09/26 06:25:04;;;;;;;11.88;4.08;;;;;;;22.26;54.12;101720.08;2306565;76;50207;-73
2023/09/26 06:28:07;;;;;;;11.80;4.25;;;;;;;22.28;54.08;101724.27;2333314;76;22411;-74
2023/09/26 06:31:10;;;;;;;17.23;4.53;;;;;;;22.28;54.22;101724.27;2306766;76;52394;-74
2023/09/26 06:34:12;;;;;;;30.25;4.80;;;;;;;22.26;54.68;101727.66;2319180;76;51506;-74
2023/09/26 06:37:14;;;;;;;13.55;4.20;;;;;;;22.32;54.64;101730.95;2319082;76;51432;-73
2023/09/26 06:40:17;;;;;;;20.02;5.58;;;;;;;22.33;54.81;101727.27;2297670;76;51528;-74
2023/09/26 06:43:19;;;;;;;15.63;5.92;;;;;;;22.34;55.61;101724.87;2325474;75;51533;-74
2023/09/26 06:46:21;;;;;;;20.35;5.75;;;;;;;22.37;55.46;101727.20;2298349;76;50744;-74
2023/09/26 06:49:23;;;;;;;17.40;4.72;;;;;;;22.34;55.58;101720.00;2323710;76;51525;-74
2023/09/26 06:52:26;;;;;;;9.73;4.90;;;;;;;22.34;55.51;101724.87;2297043;76;51556;-74
2023/09/26 06:55:28;;;;;;;15.28;4.50;;;;;;;22.34;55.57;101712.75;2271547;76;51618;-73
2023/09/26 06:58:30;;;;;;;21.60;4.47;;;;;;;22.34;55.22;101710.05;2330913;76;50222;-73
2023/09/26 07:01:33;;;;;;;15.50;3.90;;;;;;;22.35;55.17;101717.14;2297690;76;51864;-74
2023/09/26 07:04:35;;;;;;;14.10;4.78;;;;;;;22.34;55.19;101714.09;2250338;76;52639;-76
2023/09/26 07:07:38;;;;;;;10.25;4.33;;;;;;;22.35;55.13;101721.19;2270449;77;51404;-74
2023/09/26 07:10:40;;;;;;;14.55;3.87;;;;;;;22.36;55.04;101715.27;2270786;77;50968;-72
2023/09/26 07:13:43;;;;;;;11.55;4.03;;;;;;;22.35;55.04;101711.75;2270994;77;50259;-73
2023/09/26 07:16:46;;;;;;;16.35;4.22;;;;;;;22.36;54.94;101716.11;2271413;77;50609;-74
2023/09/26 07:19:52;;;;;;;13.65;3.80;;;;;;;22.41;54.81;101714.22;2222155;78;52621;-74
2023/09/26 07:22:54;;;;;;;13.05;4.28;;;;;;;22.46;54.61;101717.20;2268717;78;52051;-74
2023/09/26 07:26:12;;;;;;;12.15;4.28;;;;;;;22.49;54.46;101714.66;2268703;78;50443;-75
2023/09/26 07:29:14;;;;;;;9.55;3.60;;;;;;;22.51;54.38;101721.54;2245830;78;50312;-75
2023/09/26 07:32:16;;;;;;;9.53;3.50;;;;;;;22.54;54.22;101718.98;2261608;76;50645;-74
2023/09/26 07:35:18;;;;;;;8.55;3.95;;;;;;;22.54;54.17;101723.03;2310516;76;51462;-74
2023/09/26 07:38:21;;;;;;;12.58;4.17;;;;;;;22.54;54.15;101720.34;2291034;76;51516;-74
2023/09/26 07:41:23;;;;;;;8.75;3.60;;;;;;;22.53;54.13;101722.69;2290743;76;50635;-74
2023/09/26 07:44:25;;;;;;;11.57;3.92;;;;;;;22.56;54.00;101719.64;2292188;76;51129;-74
2023/09/26 07:47:27;;;;;;;9.00;3.77;;;;;;;22.57;53.94;101718.61;2316740;76;50614;-73
2023/09/26 07:50:30;;;;;;;7.20;3.72;;;;;;;22.54;53.95;101723.03;2290925;76;51433;-74
2023/09/26 07:53:32;;;;;;;8.20;3.90;;;;;;;22.53;53.90;101721.34;2292347;76;51213;-74
2023/09/26 07:56:34;;;;;;;7.40;3.50;;;;;;;22.53;53.92;101726.73;2290636;76;50704;-74
2023/09/26 07:59:38;;;;;;;7.50;3.60;;;;;;;22.53;53.90;101728.08;2290118;76;51474;-74
2023/09/26 08:02:40;;;;;;;7.95;4.15;;;;;;;22.50;53.90;101722.54;2321194;76;50034;-74
2023/09/26 08:05:42;;;;;;;13.25;3.80;;;;;;;22.50;53.87;101723.06;2323172;76;50308;-75
2023/09/26 08:08:46;;;;;;;9.33;3.65;;;;;;;22.50;53.85;101736.55;2306071;76;49700;-75
2023/09/26 08:11:48;;;;;;;7.85;3.77;;;;;;;22.49;53.84;101734.88;2332590;76;51596;-75
2023/09/26 08:14:55;;;;;;;5.75;3.47;;;;;;;22.49;53.82;101733.02;2318409;76;51400;-75
2023/09/26 08:17:58;;;;;;;8.35;3.70;;;;;;;22.49;53.81;101726.79;2318542;76;50251;-75
2023/09/26 08:21:00;;;;;;;8.13;3.42;;;;;;;22.47;53.80;101731.00;2332574;76;51525;-75
2023/09/26 08:24:03;;;;;;;7.58;3.70;;;;;;;22.44;53.78;101726.50;2304790;76;50724;-75
2023/09/26 08:27:05;;;;;;;9.80;4.33;;;;;;;22.44;53.78;101736.77;2318595;76;51541;-74
2023/09/26 08:30:11;;;;;;;7.70;3.90;;;;;;;22.43;53.73;101722.97;2304883;75;51557;-75
2023/09/26 08:33:12;;;;;;;;;;;;;;;22.44;53.68;101723.28;2308076;76;22188;-74
2023/09/26 08:36:18;;;;;;;7.15;3.90;;;;;;;22.44;53.65;101720.59;2318608;75;51635;-74
2023/09/26 08:39:21;;;;;;;6.58;3.65;;;;;;;22.42;53.65;101718.58;2318564;76;51502;-74
2023/09/26 08:42:26;;;;;;;6.37;3.90;;;;;;;22.45;53.54;101722.25;2262407;76;52433;-74
2023/09/26 08:45:29;;;;;;;7.85;3.77;;;;;;;22.44;53.56;101727.33;2318513;76;50843;-74
2023/09/26 08:48:31;;;;;;;7.37;3.55;;;;;;;22.44;53.52;101727.84;2318509;76;51564;-73
2023/09/26 08:51:34;;;;;;;5.05;3.80;;;;;;;22.41;53.55;101728.22;2306285;76;50031;-74
2023/09/26 08:54:36;;;;;;;5.85;3.42;;;;;;;22.42;53.49;101729.88;2304731;76;50305;-74
2023/09/26 08:57:38;;;;;;;6.37;3.42;;;;;;;22.41;53.51;101725.00;2318591;76;50236;-74
2023/09/26 09:00:40;;;;;;;6.97;4.15;;;;;;;22.37;53.51;101723.16;2306262;76;51637;-74
2023/09/26 09:03:43;;;;;;;7.10;3.47;;;;;;;22.37;53.59;101715.59;2310816;75;50258;-74
2023/09/26 09:06:45;;;;;;;8.70;3.62;;;;;;;22.36;53.56;101716.11;2269822;76;49912;-74
2023/09/26 09:10:11;;;;;;;4.22;3.33;;;;;;;22.37;53.50;101712.89;2270290;77;50259;-74
2023/09/26 09:13:14;;;;;;;5.12;3.33;;;;;;;22.39;53.43;101708.99;2267728;78;51919;-74
2023/09/26 09:16:18;;;;;;;5.67;3.52;;;;;;;22.35;53.53;101711.75;2245536;78;50223;-76
2023/09/26 09:19:20;;;;;;;6.75;3.72;;;;;;;22.32;53.56;101704.00;2246000;78;51491;-76
2023/09/26 09:22:23;;;;;;;6.00;3.58;;;;;;;22.31;53.57;101708.24;2268660;78;51461;-75
2023/09/26 09:25:33;;;;;;;6.55;3.60;;;;;;;22.29;53.57;101704.37;2221438;77;52365;-76
2023/09/26 09:28:35;;;;;;;4.25;3.30;;;;;;;22.31;53.56;101705.55;2245334;78;50490;-76
2023/09/26 09:31:37;;;;;;;4.78;3.42;;;;;;;22.31;53.54;101703.68;2273799;76;50612;-76
2023/09/26 09:34:39;;;;;;;6.15;3.90;;;;;;;22.30;53.53;101693.93;2300604;76;51549;-75
2023/09/26 09:37:49;;;;;;;5.05;3.62;;;;;;;22.31;53.52;101694.24;2318590;76;51494;-75
2023/09/26 09:40:52;;;;;;;4.12;3.58;;;;;;;22.31;53.51;101686.16;2332353;76;50674;-74
2023/09/26 09:43:54;;;;;;;5.75;3.50;;;;;;;22.29;53.53;101684.14;2304776;76;50381;-77
2023/09/26 09:46:58;;;;;;;4.08;3.45;;;;;;;22.30;53.46;101683.14;2318721;76;50626;-77
2023/09/26 09:50:01;;;;;;;6.08;3.70;;;;;;;22.31;53.45;101687.50;2305365;76;49638;-76
2023/09/26 09:53:04;;;;;;;5.55;3.45;;;;;;;22.30;53.49;101680.94;2305025;76;50664;-75
2023/09/26 09:56:07;;;;;;;9.40;3.80;;;;;;;22.29;53.50;101681.97;2332672;76;50676;-75
2023/09/26 09:59:15;;;;;;;5.55;3.47;;;;;;;22.29;53.50;101672.02;2262954;76;51615;-75
2023/09/26 10:02:19;;;;;;;3.98;3.58;;;;;;;22.30;53.50;101676.89;2304607;76;22904;-75
2023/09/26 10:05:20;;;;;;;6.93;3.87;;;;;;;22.28;53.52;101670.34;2322457;76;22445;-75
2023/09/26 10:08:22;;;;;;;5.62;3.27;;;;;;;22.27;53.54;101670.03;2318017;76;51342;-73
2023/09/26 10:11:25;;;;;;;5.90;3.47;;;;;;;22.28;53.57;101668.17;2318756;76;50762;-74
2023/09/26 10:14:28;;;;;;;5.58;3.50;;;;;;;22.27;53.53;101665.98;2318625;76;52411;-73
2023/09/26 10:17:30;;;;;;;4.95;3.42;;;;;;;22.27;53.51;101655.20;2305004;76;51457;-75
2023/09/26 10:20:33;;;;;;;6.08;3.62;;;;;;;22.27;53.48;101651.64;2318733;76;51530;-75
2023/09/26 10:23:35;;;;;;;4.80;3.42;;;;;;;22.26;53.47;101656.20;2304849;76;51410;-76
2023/09/26 10:26:45;;;;;;;5.70;3.98;;;;;;;22.25;53.46;101657.23;2318801;76;50230;-75
2023/09/26 10:29:47;;;;;;;6.08;3.15;;;;;;;22.27;53.42;101657.90;2318688;76;50371;-76
2023/09/26 10:32:50;;;;;;;5.75;3.62;;;;;;;22.29;53.37;101654.48;2332156;76;50351;-77
2023/09/26 10:35:52;;;;;;;5.03;3.17;;;;;;;22.27;53.40;101648.46;2290692;77;51578;-73
2023/09/26 10:39:04;;;;;;;5.08;3.42;;;;;;;22.27;53.42;101639.03;2258014;77;51413;-75
2023/09/26 10:42:10;;;;;;;5.87;3.52;;;;;;;22.26;53.42;101641.38;2309028;75;22299;-74
2023/09/26 10:45:12;;;;;;;3.80;3.33;;;;;;;22.26;53.41;101637.33;2308800;77;50746;-74
2023/09/26 10:48:21;;;;;;;5.03;3.20;;;;;;;22.26;53.41;101629.24;2258012;77;52623;-76
2023/09/26 10:51:23;;;;;;;5.50;3.00;;;;;;;22.25;53.42;101627.58;2304810;77;51507;-75
2023/09/26 10:54:25;;;;;;;5.55;3.75;;;;;;;22.24;53.44;101623.19;2304693;77;50359;-75
2023/09/26 10:57:28;;;;;;;5.35;3.35;;;;;;;22.24;53.44;101628.58;2283318;77;51442;-76
2023/09/26 11:00:30;;;;;;;6.97;3.40;;;;;;;22.26;53.44;101621.67;2304677;77;51373;-74
2023/09/26 11:03:32;;;;;;;5.17;3.50;;;;;;;22.26;53.41;101618.46;2287101;76;50847;-73
2023/09/26 11:06:37;;;;;;;4.45;3.30;;;;;;;22.25;53.45;101614.10;2283967;77;51417;-74
2023/09/26 11:09:42;;;;;;;4.55;3.20;;;;;;;22.25;53.43;101614.10;2304955;77;23037;-74
2023/09/26 11:12:45;;;;;;;6.87;3.40;;;;;;;22.27;53.41;101619.29;2258035;77;51236;-75
2023/09/26 11:15:47;;;;;;;3.83;3.15;;;;;;;22.26;53.46;101610.38;2304671;77;50649;-75
2023/09/26 11:18:55;;;;;;;4.83;3.08;;;;;;;22.26;53.46;101613.59;2304841;77;50326;-74
2023/09/26 11:21:58;;;;;;;4.28;3.08;;;;;;;22.26;53.42;101610.38;2308905;77;50316;-73
2023/09/26 11:25:07;;;;;;;5.30;3.55;;;;;;;22.26;53.47;101613.07;2304525;77;50271;-72
2023/09/26 11:28:09;;;;;;;4.95;3.20;;;;;;;22.25;53.46;101600.63;2304789;77;50733;-74
2023/09/26 11:31:13;;;;;;;4.33;3.12;;;;;;;22.27;53.42;101609.37;2304675;77;50187;-73
2023/09/26 11:34:18;;;;;;;4.55;3.10;;;;;;;22.27;53.42;101601.28;2310394;76;49968;-73
2023/09/26 11:37:23;;;;;;;5.70;3.52;;;;;;;22.25;53.46;101595.75;2241014;78;52353;-73
2023/09/26 11:40:26;;;;;;;3.85;3.37;;;;;;;22.26;53.41;101600.11;2271065;77;51083;-74
2023/09/26 11:43:30;;;;;;;3.58;3.25;;;;;;;22.26;53.39;101599.59;2245204;78;50676;-75
2023/09/26 11:46:41;;;;;;;4.67;3.45;;;;;;;22.25;53.43;101581.75;2269298;77;50378;-74
2023/09/26 11:49:43;;;;;;;4.35;3.27;;;;;;;22.25;53.39;101584.45;2269010;78;50634;-74
2023/09/26 11:52:46;;;;;;;4.00;3.27;;;;;;;22.23;53.47;101582.44;2245564;78;51741;-74
2023/09/26 11:55:51;;;;;;;4.10;3.10;;;;;;;22.22;53.47;101574.52;2270690;77;51377;-75
2023/09/26 11:58:52;;;;;;;3.72;3.00;;;;;;;22.25;53.43;101573.66;2245994;78;22332;-75
2023/09/26 12:01:58;;;;;;;3.22;2.85;;;;;;;22.27;53.36;101566.23;2255588;76;51495;-75
2023/09/26 12:04:58;;;;;;;4.15;3.12;;;;;;;22.27;53.35;101563.53;2300426;76;22448;-76
2023/09/26 12:08:01;;;;;;;3.95;3.25;;;;;;;22.26;53.38;101563.70;2316590;76;50677;-74
2023/09/26 12:11:03;;;;;;;4.37;3.33;;;;;;;22.27;53.35;101559.98;2290976;76;50316;-73
2023/09/26 12:14:05;;;;;;;5.62;3.50;;;;;;;22.31;53.25;101561.30;2290764;76;49938;-74
2023/09/26 12:17:07;;;;;;;3.95;3.22;;;;;;;22.33;53.18;101560.61;2292390;76;51682;-74
2023/09/26 12:20:10;;;;;;;3.62;3.08;;;;;;;22.33;53.14;101556.56;2290535;76;51455;-75
2023/09/26 12:23:13;;;;;;;4.35;3.45;;;;;;;22.32;53.17;101551.65;2290931;76;50257;-73
2023/09/26 12:26:15;;;;;;;3.52;2.98;;;;;;;22.34;53.12;101547.44;2292386;76;50944;-73
2023/09/26 12:29:18;;;;;;;3.95;3.02;;;;;;;22.34;53.14;101540.17;2290648;76;51529;-75
2023/09/26 12:32:20;;;;;;;3.87;2.95;;;;;;;22.34;53.17;101542.88;2291554;76;51567;-76
2023/09/26 12:35:22;;;;;;;5.30;3.12;;;;;;;22.35;53.13;101538.31;2318589;76;50421;-75
2023/09/26 12:38:24;;;;;;;4.47;3.52;;;;;;;22.36;53.08;101538.14;2317326;76;50388;-75
2023/09/26 12:41:26;;;;;;;4.30;3.10;;;;;;;22.36;53.12;101538.14;2290753;76;51661;-75
2023/09/26 12:44:29;;;;;;;3.55;3.20;;;;;;;22.37;53.09;101536.27;2293465;76;50200;-75
2023/09/26 12:47:31;;;;;;;3.52;2.90;;;;;;;22.35;53.21;101528.38;2312868;76;50716;-75
2023/09/26 12:50:36;;;;;;;4.67;3.05;;;;;;;22.37;53.14;101535.75;2277605;77;51711;-74
2023/09/26 12:53:38;;;;;;;4.92;3.10;;;;;;;22.37;53.13;101527.66;2304044;76;50280;-74
2023/09/26 12:56:40;;;;;;;4.67;3.27;;;;;;;22.38;53.21;101523.12;2276488;76;50609;-74
2023/09/26 12:59:42;;;;;;;4.87;3.00;;;;;;;22.38;53.24;101520.44;2255616;78;51420;-74
2023/09/26 13:02:44;;;;;;;4.92;2.90;;;;;;;22.37;53.29;101519.57;2268561;76;51436;-74
2023/09/26 13:05:47;;;;;;;4.72;2.98;;;;;;;22.37;53.24;101515.53;2299587;76;52445;-74
2023/09/26 13:08:49;;;;;;;3.58;3.08;;;;;;;22.39;53.21;101511.31;2318424;76;51268;-75
2023/09/26 13:11:51;;;;;;;4.35;3.10;;;;;;;22.38;53.24;101504.25;2318484;76;51366;-74
2023/09/26 13:14:53;;;;;;;5.00;3.33;;;;;;;22.37;53.29;101506.61;2306060;76;49585;-74
2023/09/26 13:17:56;;;;;;;3.17;2.87;;;;;;;22.38;53.36;101499.69;2304724;76;51390;-74
2023/09/26 13:20:58;;;;;;;3.98;2.92;;;;;;;22.38;53.22;101495.65;2304793;76;51581;-74
2023/09/26 13:24:00;;;;;;;5.08;2.80;;;;;;;22.38;53.29;101486.73;2332456;76;51446;-75
2023/09/26 13:27:08;;;;;;;4.40;3.25;;;;;;;22.35;53.48;101490.64;2304783;76;51454;-75
2023/09/26 13:30:08;;;;;;;4.00;3.15;;;;;;;22.34;53.50;101486.25;2304487;76;22338;-74
2023/09/26 13:33:11;;;;;;;4.42;2.55;;;;;;;22.36;53.44;101486.91;2331030;76;50771;-75
2023/09/26 13:36:13;;;;;;;4.00;2.92;;;;;;;22.37;53.39;101473.73;2300686;76;50263;-74
2023/09/26 13:39:15;;;;;;;4.05;3.27;;;;;;;22.38;53.38;101478.12;2306165;76;49600;-74
2023/09/26 13:42:18;;;;;;;5.92;3.02;;;;;;;22.38;53.44;101472.73;2304698;76;50304;-74
2023/09/26 13:45:20;;;;;;;5.20;3.08;;;;;;;22.38;53.47;101471.37;2304778;76;51563;-74
2023/09/26 13:48:23;;;;;;;3.40;3.08;;;;;;;22.38;53.42;101473.25;2304876;76;51406;-74
2023/09/26 13:51:25;;;;;;;4.60;3.02;;;;;;;22.38;53.48;101476.77;2304793;76;51447;-75
2023/09/26 13:54:27;;;;;;;5.05;2.95;;;;;;;22.35;53.65;101478.50;2279150;76;51643;-74
2023/09/26 13:57:29;;;;;;;3.52;3.20;;;;;;;22.35;53.64;101469.55;2332703;76;50687;-74
2023/09/26 14:00:32;;;;;;;4.20;3.02;;;;;;;22.34;53.66;101468.72;2318673;76;51429;-74
2023/09/26 14:03:35;;;;;;;4.25;2.70;;;;;;;22.35;53.60;101473.59;2257636;76;50991;-74
2023/09/26 14:06:37;;;;;;;3.65;2.67;;;;;;;22.35;53.51;101464.16;2315528;76;50207;-73
2023/09/26 14:09:39;;;;;;;3.77;2.67;;;;;;;22.33;53.56;101463.02;2291208;76;50093;-74